createdAt,value
2022-11-11T00:01:27.251Z,5.58
2022-11-11T00:03:57.644Z,5.55
2022-11-11T00:06:27.122Z,5.50
2022-11-11T00:08:55.525Z,5.55
2022-11-11T00:11:25.802Z,5.56
2022-11-11T00:13:55.597Z,5.60
2022-11-11T00:16:24.349Z,5.94
2022-11-11T00:19:09.958Z,5.52
2022-11-11T00:22:00.708Z,5.18
2022-11-11T00:24:47.444Z,5.22
2022-11-11T00:27:17.389Z,5.36
2022-11-11T00:29:49.292Z,5.36
2022-11-11T00:32:27.849Z,5.67
2022-11-11T00:35:15.958Z,5.96
2022-11-11T00:37:46.752Z,6.24
2022-11-11T00:40:16.774Z,6.25
2022-11-11T00:42:47.690Z,6.17
2022-11-11T00:45:16.418Z,6.13
2022-11-11T00:48:03.129Z,6.13
2022-11-11T00:50:50.088Z,6.08
2022-11-11T00:53:27.488Z,6.08
2022-11-11T00:55:56.571Z,6.17
2022-11-11T00:58:25.240Z,6.18
2022-11-11T01:00:55.531Z,6.27
2022-11-11T01:03:26.156Z,6.21
2022-11-11T01:05:55.062Z,6.27
2022-11-11T01:08:29.813Z,6.17
2022-11-11T01:10:58.375Z,6.25
2022-11-11T01:13:27.367Z,6.41
2022-11-11T01:16:00.064Z,6.48
2022-11-11T01:18:31.360Z,6.50
2022-11-11T01:21:07.346Z,6.49
2022-11-11T01:23:38.097Z,6.45
2022-11-11T01:26:08.836Z,6.41
2022-11-11T01:28:37.157Z,6.31
2022-11-11T01:31:06.262Z,6.20
2022-11-11T01:33:34.907Z,6.36
2022-11-11T01:36:07.748Z,6.34
2022-11-11T01:38:37.522Z,6.29
2022-11-11T01:41:26.528Z,6.18
2022-11-11T01:43:56.023Z,6.10
2022-11-11T01:46:28.864Z,6.04
2022-11-11T01:49:21.289Z,5.96
2022-11-11T01:51:52.526Z,5.87
2022-11-11T01:54:26.521Z,5.73
2022-11-11T01:57:01.051Z,5.59
2022-11-11T01:59:29.834Z,5.53
2022-11-11T02:01:58.213Z,5.48
2022-11-11T02:04:44.190Z,5.43
2022-11-11T02:07:14.792Z,5.43
2022-11-11T02:09:47.091Z,5.34
2022-11-11T02:12:34.788Z,5.28
2022-11-11T02:15:04.096Z,5.27
2022-11-11T02:17:33.353Z,5.11
2022-11-11T02:20:04.760Z,5.05
2022-11-11T02:22:40.495Z,4.91
2022-11-11T02:25:11.353Z,4.79
2022-11-11T02:27:42.026Z,4.64
2022-11-11T02:30:17.121Z,4.59
2022-11-11T02:32:53.263Z,4.56
2022-11-11T02:35:22.563Z,4.52
2022-11-11T02:37:53.773Z,4.46
2022-11-11T02:40:29.215Z,4.32
2022-11-11T02:42:59.024Z,4.35
2022-11-11T02:45:31.461Z,4.26
2022-11-11T02:48:00.376Z,4.29
2022-11-11T02:50:30.753Z,4.41
2022-11-11T02:53:01.391Z,4.52
2022-11-11T02:55:31.060Z,4.48
2022-11-11T02:58:02.966Z,4.52
2022-11-11T03:00:31.791Z,4.45
2022-11-11T03:03:00.225Z,4.39
2022-11-11T03:05:29.385Z,4.31
2022-11-11T03:08:00.260Z,4.22
2022-11-11T03:10:30.309Z,4.25
2022-11-11T03:13:00.285Z,4.14
2022-11-11T03:15:28.663Z,4.18
2022-11-11T03:17:55.995Z,4.14
2022-11-11T03:20:43.584Z,4.25
2022-11-11T03:23:14.347Z,4.08
2022-11-11T03:25:43.175Z,4.01
2022-11-11T03:28:14.113Z,3.91
2022-11-11T03:30:44.107Z,3.80
2022-11-11T03:33:13.724Z,3.70
2022-11-11T03:35:45.309Z,3.62
2022-11-11T03:38:24.565Z,3.59
2022-11-11T03:40:53.900Z,3.70
2022-11-11T03:43:26.408Z,3.77
2022-11-11T03:45:56.140Z,3.81
2022-11-11T03:48:27.648Z,3.81
2022-11-11T03:50:56.026Z,3.90
2022-11-11T03:53:24.830Z,3.93
2022-11-11T03:55:54.767Z,3.91
2022-11-11T03:58:29.534Z,4.01
2022-11-11T04:00:57.372Z,3.99
2022-11-11T04:03:43.287Z,4.04
2022-11-11T04:06:34.980Z,3.97
2022-11-11T04:09:20.602Z,3.69
2022-11-11T04:11:49.124Z,3.42
2022-11-11T04:14:36.255Z,3.35
2022-11-11T04:17:04.592Z,3.25
2022-11-11T04:19:50.427Z,3.12
2022-11-11T04:22:19.357Z,2.99
2022-11-11T04:25:04.672Z,2.88
2022-11-11T04:27:36.559Z,2.88
2022-11-11T04:30:06.585Z,2.88
2022-11-11T04:32:40.153Z,2.92
2022-11-11T04:35:11.239Z,2.98
2022-11-11T04:37:47.093Z,3.02
2022-11-11T04:40:33.041Z,2.99
2022-11-11T04:43:02.518Z,3.09
2022-11-11T04:45:36.374Z,3.23
2022-11-11T04:48:05.154Z,3.33
2022-11-11T04:50:38.632Z,3.20
2022-11-11T04:53:07.879Z,3.06
2022-11-11T04:55:53.338Z,2.94
2022-11-11T04:58:23.189Z,2.88
2022-11-11T05:00:56.625Z,3.04
2022-11-11T05:03:26.176Z,3.08
2022-11-11T05:06:12.550Z,3.05
2022-11-11T05:09:00.603Z,3.01
2022-11-11T05:11:30.010Z,2.94
2022-11-11T05:14:16.396Z,2.80
2022-11-11T05:17:04.755Z,2.70
2022-11-11T05:19:58.771Z,2.54
2022-11-11T05:22:28.083Z,2.46
2022-11-11T05:25:14.166Z,2.41
2022-11-11T05:27:43.134Z,2.47
2022-11-11T05:30:12.454Z,2.50
2022-11-11T05:32:50.621Z,2.54
2022-11-11T05:35:22.534Z,2.53
2022-11-11T05:38:11.191Z,2.58
2022-11-11T05:40:39.408Z,2.51
2022-11-11T05:43:07.542Z,2.51
2022-11-11T05:45:35.953Z,2.62
2022-11-11T05:48:05.783Z,2.65
2022-11-11T05:50:34.729Z,2.54
2022-11-11T05:53:04.788Z,2.51
2022-11-11T05:55:32.859Z,2.37
2022-11-11T05:58:02.057Z,2.27
2022-11-11T06:00:30.086Z,2.23
2022-11-11T06:03:03.459Z,2.20
2022-11-11T06:05:33.253Z,2.20
2022-11-11T06:08:02.405Z,2.23
2022-11-11T06:10:31.613Z,2.43
2022-11-11T06:13:09.010Z,2.50
2022-11-11T06:15:37.975Z,2.47
2022-11-11T06:18:10.031Z,2.47
2022-11-11T06:20:42.917Z,2.44
2022-11-11T06:23:13.561Z,2.48
2022-11-11T06:26:00.487Z,2.41
2022-11-11T06:28:29.853Z,2.37
2022-11-11T06:30:58.417Z,2.37
2022-11-11T06:33:26.882Z,2.40
2022-11-11T06:35:57.951Z,2.40
2022-11-11T06:38:28.137Z,2.47
2022-11-11T06:40:57.032Z,2.60
2022-11-11T06:43:27.655Z,2.62
2022-11-11T06:45:59.624Z,2.80
2022-11-11T06:48:34.407Z,2.87
2022-11-11T06:51:07.529Z,2.99
2022-11-11T06:53:36.700Z,3.05
2022-11-11T06:56:04.649Z,3.06
2022-11-11T06:58:33.248Z,3.11
2022-11-11T07:01:05.174Z,3.15
2022-11-11T07:03:36.046Z,3.19
2022-11-11T07:06:06.099Z,3.27
2022-11-11T07:08:35.650Z,3.36
2022-11-11T07:11:12.495Z,3.36
2022-11-11T07:13:50.082Z,3.43
2022-11-11T07:16:19.681Z,3.63
2022-11-11T07:18:48.215Z,3.75
2022-11-11T07:21:17.773Z,3.87
2022-11-11T07:23:47.158Z,4.06
2022-11-11T07:26:17.433Z,4.31
2022-11-11T07:28:47.387Z,4.39
2022-11-11T07:31:18.279Z,4.46
2022-11-11T07:33:49.148Z,4.54
2022-11-11T07:36:21.073Z,4.71
2022-11-11T07:38:49.177Z,4.91
2022-11-11T07:41:19.859Z,5.22
2022-11-11T07:43:51.741Z,5.48
2022-11-11T07:46:19.673Z,5.62
2022-11-11T07:48:55.310Z,5.73
2022-11-11T07:51:28.040Z,5.89
2022-11-11T07:53:56.349Z,5.93
2022-11-11T07:56:25.388Z,6.08
2022-11-11T07:58:55.186Z,6.22
2022-11-11T08:01:24.547Z,6.31
2022-11-11T08:03:53.083Z,6.59
2022-11-11T08:06:27.198Z,6.77
2022-11-11T08:08:57.147Z,7.04
2022-11-11T08:11:50.688Z,7.24
2022-11-11T08:14:20.424Z,7.45
2022-11-11T08:16:48.873Z,7.47
2022-11-11T08:19:19.790Z,7.52
2022-11-11T08:21:53.461Z,7.62
2022-11-11T08:27:12.561Z,8.14
2022-11-11T08:29:41.050Z,8.36
2022-11-11T08:32:09.216Z,8.37
2022-11-11T08:34:37.258Z,8.42
2022-11-11T08:37:09.653Z,8.57
2022-11-11T08:39:40.467Z,8.69
2022-11-11T08:42:11.393Z,8.92
2022-11-11T08:44:39.581Z,9.23
2022-11-11T08:47:09.170Z,9.37
2022-11-11T08:49:39.344Z,9.47
2022-11-11T08:52:09.649Z,9.79
2022-11-11T08:54:38.878Z,9.78
2022-11-11T08:57:07.254Z,9.92
2022-11-11T08:59:35.381Z,10.15
2022-11-11T09:02:03.309Z,10.36
2022-11-11T09:04:44.687Z,10.60
2022-11-11T09:07:13.553Z,10.77
2022-11-11T09:09:43.001Z,10.91
2022-11-11T09:12:10.961Z,11.16
2022-11-11T09:14:39.227Z,11.39
2022-11-11T09:17:07.241Z,11.50
2022-11-11T09:19:35.297Z,11.59
2022-11-11T09:22:04.374Z,11.67
2022-11-11T09:24:32.497Z,11.67
2022-11-11T09:27:01.845Z,11.65
2022-11-11T09:29:29.933Z,11.60
2022-11-11T09:32:01.140Z,11.56
2022-11-11T09:34:29.101Z,11.66
2022-11-11T09:36:57.234Z,11.66
2022-11-11T09:39:25.481Z,11.69
2022-11-11T09:42:03.779Z,11.70
2022-11-11T09:44:43.438Z,11.69
2022-11-11T09:47:19.521Z,11.67
2022-11-11T09:50:02.089Z,11.66
2022-11-11T09:52:32.864Z,11.84
2022-11-11T09:55:05.239Z,11.88
2022-11-11T09:57:36.361Z,12.01
2022-11-11T10:00:20.278Z,12.08
2022-11-11T10:02:52.859Z,12.14
2022-11-11T10:05:23.743Z,12.28
2022-11-11T10:07:54.966Z,12.46
2022-11-11T10:10:31.981Z,12.56
2022-11-11T10:13:02.705Z,12.87
2022-11-11T10:15:36.796Z,12.90
2022-11-11T10:18:21.065Z,12.92
2022-11-11T10:20:50.544Z,12.93
2022-11-11T10:23:19.271Z,12.89
2022-11-11T10:25:50.820Z,13.07
2022-11-11T10:28:20.821Z,13.13
2022-11-11T10:30:52.272Z,13.40
2022-11-11T10:33:22.378Z,13.57
2022-11-11T10:35:51.843Z,13.85
2022-11-11T10:38:28.030Z,13.98
2022-11-11T10:40:58.619Z,13.92
2022-11-11T10:43:30.196Z,13.95
2022-11-11T10:46:03.471Z,14.05
2022-11-11T10:48:37.419Z,14.02
2022-11-11T10:51:10.191Z,14.14
2022-11-11T10:53:41.321Z,14.07
2022-11-11T10:56:14.362Z,14.16
2022-11-11T10:58:46.979Z,14.14
2022-11-11T11:01:19.399Z,14.26
2022-11-11T11:03:51.793Z,14.07
2022-11-11T11:06:31.277Z,14.05
2022-11-11T11:09:02.893Z,13.89
2022-11-11T11:11:38.872Z,13.82
2022-11-11T11:14:12.203Z,13.96
2022-11-11T11:16:45.016Z,14.02
2022-11-11T11:19:18.151Z,14.12
2022-11-11T11:21:53.409Z,14.07
2022-11-11T11:24:22.606Z,14.00
2022-11-11T11:26:51.936Z,13.80
2022-11-11T11:29:28.460Z,13.73
2022-11-11T11:32:09.624Z,13.86
2022-11-11T11:34:48.644Z,13.79
2022-11-11T11:37:18.164Z,13.78
2022-11-11T11:39:46.469Z,13.75
2022-11-11T11:42:33.592Z,13.65
2022-11-11T11:45:16.873Z,13.54
2022-11-11T11:48:09.424Z,13.51
2022-11-11T11:50:42.217Z,13.61
2022-11-11T11:53:21.450Z,13.61
2022-11-11T11:55:56.144Z,13.58
2022-11-11T11:58:31.906Z,13.59
2022-11-11T12:01:05.356Z,13.63
2022-11-11T12:03:44.892Z,13.63
2022-11-11T12:06:18.060Z,13.58
2022-11-11T12:08:53.840Z,13.55
2022-11-11T12:11:25.583Z,13.61
2022-11-11T12:14:02.715Z,13.65
2022-11-11T12:16:37.108Z,13.75
2022-11-11T12:19:28.812Z,13.73
2022-11-11T12:22:03.312Z,13.72
2022-11-11T12:24:37.217Z,13.80
2022-11-11T12:27:09.240Z,13.83
2022-11-11T12:29:46.609Z,13.83
2022-11-11T12:32:25.198Z,13.92
2022-11-11T12:35:06.096Z,13.90
2022-11-11T12:37:40.822Z,14.03
2022-11-11T12:40:18.965Z,14.00
2022-11-11T12:42:55.957Z,14.10
2022-11-11T12:45:25.564Z,14.26
2022-11-11T12:47:58.914Z,14.36
2022-11-11T12:50:35.248Z,14.26
2022-11-11T12:53:10.629Z,14.45
2022-11-11T12:55:42.660Z,14.48
2022-11-11T12:58:19.625Z,14.51
2022-11-11T13:00:56.955Z,14.51
2022-11-11T13:03:33.894Z,14.77
2022-11-11T13:06:05.978Z,14.95
2022-11-11T13:08:49.027Z,14.86
2022-11-11T13:11:26.143Z,14.54
2022-11-11T13:14:02.926Z,14.44
2022-11-11T13:16:30.854Z,14.34
2022-11-11T13:19:00.148Z,14.16
2022-11-11T13:21:33.217Z,14.05
2022-11-11T13:24:01.727Z,14.05
2022-11-11T13:26:40.110Z,13.93
2022-11-11T13:29:19.567Z,13.87
2022-11-11T13:31:48.826Z,13.83
2022-11-11T13:34:18.270Z,13.82
2022-11-11T13:36:50.116Z,13.73
2022-11-11T13:39:24.799Z,13.66
2022-11-11T13:41:58.163Z,13.58
2022-11-11T13:44:28.718Z,13.52
2022-11-11T13:47:04.780Z,13.50
2022-11-11T13:49:35.670Z,13.44
2022-11-11T13:52:05.719Z,13.41
2022-11-11T13:54:36.344Z,13.41
2022-11-11T13:57:08.068Z,13.37
2022-11-11T13:59:38.229Z,13.30
2022-11-11T14:02:27.283Z,13.31
2022-11-11T14:05:13.866Z,13.15
2022-11-11T14:07:54.785Z,13.08
2022-11-11T14:10:41.487Z,13.02
2022-11-11T14:13:32.503Z,12.89
2022-11-11T14:16:01.992Z,12.82
2022-11-11T14:18:40.773Z,12.72
2022-11-11T14:21:09.272Z,12.65
2022-11-11T14:23:37.894Z,12.60
2022-11-11T14:26:26.274Z,12.53
2022-11-11T14:28:55.285Z,12.39
2022-11-11T14:31:49.922Z,12.32
2022-11-11T14:34:28.936Z,12.26
2022-11-11T14:36:59.842Z,12.20
2022-11-11T14:39:33.876Z,12.11
2022-11-11T14:42:02.140Z,11.97
2022-11-11T14:44:40.430Z,11.95
2022-11-11T14:47:35.744Z,11.91
2022-11-11T14:50:25.364Z,11.83
2022-11-11T14:52:56.352Z,11.71
2022-11-11T14:55:26.739Z,11.70
2022-11-11T14:57:58.386Z,11.65
2022-11-11T15:00:27.280Z,11.56
2022-11-11T15:02:56.804Z,11.47
2022-11-11T15:05:32.381Z,11.33
2022-11-11T15:08:02.923Z,11.32
2022-11-11T15:10:39.461Z,11.25
2022-11-11T15:13:25.587Z,11.08
2022-11-11T15:15:57.935Z,11.04
2022-11-11T15:18:45.777Z,10.98
2022-11-11T15:21:21.921Z,10.85
2022-11-11T15:23:52.780Z,10.82
2022-11-11T15:26:24.999Z,10.77
2022-11-11T15:29:07.190Z,10.63
2022-11-11T15:31:37.945Z,10.57
2022-11-11T15:34:12.754Z,10.49
2022-11-11T15:36:51.740Z,10.40
2022-11-11T15:39:22.622Z,10.29
2022-11-11T15:41:51.643Z,10.20
2022-11-11T15:44:21.145Z,10.12
2022-11-11T15:46:50.302Z,10.08
2022-11-11T15:49:35.132Z,9.98
2022-11-11T15:52:04.718Z,9.96
2022-11-11T15:54:34.192Z,9.85
2022-11-11T15:57:15.182Z,9.79
2022-11-11T15:59:43.598Z,9.67
2022-11-11T16:02:15.750Z,9.62
2022-11-11T16:04:55.424Z,9.59
2022-11-11T16:07:28.632Z,9.57
2022-11-11T16:09:59.418Z,9.57
2022-11-11T16:12:30.810Z,9.50
2022-11-11T16:14:59.691Z,9.47
2022-11-11T16:17:30.667Z,9.47
2022-11-11T16:19:59.648Z,9.38
2022-11-11T16:22:30.688Z,9.33
2022-11-11T16:24:59.717Z,9.22
2022-11-11T16:27:30.103Z,9.17
2022-11-11T16:30:15.740Z,9.16
2022-11-11T16:32:44.177Z,9.12
2022-11-11T16:35:25.503Z,9.15
2022-11-11T16:37:56.631Z,8.98
2022-11-11T16:40:29.983Z,8.90
2022-11-11T16:43:13.180Z,8.83
2022-11-11T16:45:47.983Z,8.80
2022-11-11T16:48:51.012Z,8.82
2022-11-11T16:51:24.262Z,8.83
2022-11-11T16:53:56.500Z,8.89
2022-11-11T16:56:27.040Z,8.83
2022-11-11T16:59:01.908Z,8.67
2022-11-11T17:01:30.667Z,8.50
2022-11-11T17:03:59.709Z,8.34
2022-11-11T17:06:47.585Z,8.29
2022-11-11T17:09:30.185Z,8.27
2022-11-11T17:11:58.598Z,8.19
2022-11-11T17:14:29.018Z,8.26
2022-11-11T17:16:58.483Z,8.24
2022-11-11T17:19:28.017Z,8.27
2022-11-11T17:22:05.181Z,8.23
2022-11-11T17:24:34.693Z,8.14
2022-11-11T17:27:03.493Z,8.11
2022-11-11T17:29:37.381Z,8.19
2022-11-11T17:32:06.678Z,8.21
2022-11-11T17:34:39.230Z,8.13
2022-11-11T17:37:09.339Z,8.07
2022-11-11T17:39:45.403Z,7.99
2022-11-11T17:42:14.397Z,7.76
2022-11-11T17:44:42.388Z,7.51
2022-11-11T17:47:14.062Z,7.41
2022-11-11T17:50:01.519Z,7.44
2022-11-11T17:52:29.685Z,7.41
2022-11-11T17:54:59.338Z,7.40
2022-11-11T17:57:27.751Z,7.32
2022-11-11T17:59:56.466Z,7.20
2022-11-11T18:02:26.701Z,7.07
2022-11-11T18:04:58.097Z,6.99
2022-11-11T18:07:27.035Z,6.96
2022-11-11T18:09:55.156Z,6.93
2022-11-11T18:12:24.660Z,6.92
2022-11-11T18:14:57.763Z,6.92
2022-11-11T18:17:26.715Z,6.96
2022-11-11T18:19:54.777Z,7.03
2022-11-11T18:22:25.010Z,6.94
2022-11-11T18:24:52.924Z,6.90
2022-11-11T18:27:21.794Z,6.89
2022-11-11T18:29:55.744Z,6.85
2022-11-11T18:32:24.095Z,6.77
2022-11-11T18:34:53.170Z,6.72
2022-11-11T18:37:21.860Z,6.72
2022-11-11T18:39:50.776Z,6.73
2022-11-11T18:42:19.745Z,6.73
2022-11-11T18:44:49.347Z,6.71
2022-11-11T18:47:19.951Z,6.68
2022-11-11T18:49:49.403Z,6.71
2022-11-11T18:52:17.506Z,6.64
2022-11-11T18:54:45.759Z,6.49
2022-11-11T18:57:14.495Z,6.39
2022-11-11T18:59:42.973Z,6.34
2022-11-11T19:02:13.043Z,6.27
2022-11-11T19:04:43.113Z,6.31
2022-11-11T19:07:12.235Z,6.34
2022-11-11T19:09:42.128Z,6.50
2022-11-11T19:12:11.139Z,6.65
2022-11-11T19:14:40.330Z,6.80
2022-11-11T19:17:10.739Z,6.90
2022-11-11T19:19:39.640Z,7.03
2022-11-11T19:22:09.731Z,7.13
2022-11-11T19:24:39.067Z,7.23
2022-11-11T19:27:07.210Z,7.27
2022-11-11T19:29:37.438Z,7.32
2022-11-11T19:32:08.849Z,7.45
2022-11-11T19:34:37.109Z,7.41
2022-11-11T19:37:09.673Z,7.55
2022-11-11T19:39:42.122Z,7.62
2022-11-11T19:42:10.459Z,7.72
2022-11-11T19:44:40.274Z,7.75
2022-11-11T19:47:08.174Z,7.85
2022-11-11T19:49:36.367Z,7.81
2022-11-11T19:52:04.550Z,7.63
2022-11-11T19:54:32.759Z,7.40
2022-11-11T19:57:02.658Z,7.24
2022-11-11T19:59:31.075Z,7.10
2022-11-11T20:01:59.790Z,7.01
2022-11-11T20:04:30.388Z,6.90
2022-11-11T20:06:58.797Z,6.79
2022-11-11T20:09:26.797Z,6.57
2022-11-11T20:11:55.826Z,6.46
2022-11-11T20:14:25.807Z,6.31
2022-11-11T20:16:54.627Z,6.28
2022-11-11T20:19:23.553Z,6.25
2022-11-11T20:21:51.982Z,6.20
2022-11-11T20:24:19.922Z,6.11
2022-11-11T20:26:52.466Z,6.00
2022-11-11T20:29:20.871Z,5.98
2022-11-11T20:31:52.237Z,5.91
2022-11-11T20:34:21.802Z,5.90
2022-11-11T20:36:52.391Z,5.87
2022-11-11T20:39:21.399Z,5.87
2022-11-11T20:41:52.253Z,5.81
2022-11-11T20:44:20.862Z,5.79
2022-11-11T20:46:52.843Z,5.76
2022-11-11T20:49:21.418Z,5.65
2022-11-11T20:51:49.514Z,5.63
2022-11-11T20:54:17.445Z,5.65
2022-11-11T20:56:47.876Z,5.66
2022-11-11T20:59:16.726Z,5.67
2022-11-11T21:01:45.451Z,5.60
2022-11-11T21:04:15.279Z,5.60
2022-11-11T21:06:43.469Z,5.60
2022-11-11T21:09:12.803Z,5.59
2022-11-11T21:11:41.077Z,5.53
2022-11-11T21:14:10.290Z,5.48
2022-11-11T21:16:39.211Z,5.42
2022-11-11T21:19:08.329Z,5.45
2022-11-11T21:21:38.199Z,5.42
2022-11-11T21:24:11.224Z,5.38
2022-11-11T21:26:39.827Z,5.38
2022-11-11T21:29:07.918Z,5.36
2022-11-11T21:31:39.537Z,5.28
2022-11-11T21:34:10.187Z,5.21
2022-11-11T21:36:41.605Z,5.22
2022-11-11T21:39:10.888Z,5.25
2022-11-11T21:41:40.368Z,5.19
2022-11-11T21:44:09.410Z,5.17
2022-11-11T21:46:37.970Z,5.12
2022-11-11T21:49:06.817Z,5.24
2022-11-11T21:51:36.047Z,5.21
2022-11-11T21:54:07.402Z,5.15
2022-11-11T21:56:36.865Z,5.12
2022-11-11T21:59:06.898Z,5.11
2022-11-11T22:01:36.098Z,5.12
2022-11-11T22:04:06.290Z,5.04
2022-11-11T22:06:35.059Z,4.97
2022-11-11T22:09:05.609Z,4.92
2022-11-11T22:11:35.061Z,4.92
2022-11-11T22:14:04.858Z,4.92
2022-11-11T22:16:33.572Z,5.02
2022-11-11T22:19:02.719Z,5.04
2022-11-11T22:21:33.879Z,5.07
2022-11-11T22:24:03.009Z,5.10
2022-11-11T22:26:34.638Z,5.12
2022-11-11T22:29:03.836Z,5.14
2022-11-11T22:31:34.588Z,5.18
2022-11-11T22:34:03.267Z,5.19
2022-11-11T22:36:32.173Z,5.19
2022-11-11T22:39:00.465Z,5.18
2022-11-11T22:41:29.369Z,5.17
2022-11-11T22:44:00.609Z,5.14
2022-11-11T22:46:29.712Z,5.05
2022-11-11T22:48:59.754Z,5.08
2022-11-11T22:51:29.751Z,5.05
2022-11-11T22:53:58.866Z,5.04
2022-11-11T22:56:27.779Z,5.08
2022-11-11T22:58:56.130Z,5.10
2022-11-11T23:01:30.003Z,5.14
2022-11-11T23:03:59.598Z,5.14
2022-11-11T23:06:29.390Z,5.18
2022-11-11T23:08:57.944Z,5.27
2022-11-11T23:11:26.648Z,5.25
2022-11-11T23:13:58.364Z,5.25
2022-11-11T23:16:29.121Z,5.32
2022-11-11T23:18:57.049Z,5.38
2022-11-11T23:21:27.691Z,5.40
2022-11-11T23:23:59.041Z,5.42
2022-11-11T23:26:28.097Z,5.40
2022-11-11T23:28:59.765Z,5.39
2022-11-11T23:31:38.394Z,5.48
2022-11-11T23:34:09.985Z,5.38
2022-11-11T23:36:38.854Z,5.42
2022-11-11T23:39:09.977Z,5.45
2022-11-11T23:41:39.864Z,5.42
2022-11-11T23:44:12.694Z,5.42
2022-11-11T23:46:42.101Z,5.43
2022-11-11T23:49:11.860Z,5.43
2022-11-11T23:51:44.004Z,5.45
2022-11-11T23:54:16.774Z,5.50
2022-11-11T23:56:46.780Z,5.49
2022-11-11T23:59:17.205Z,5.52
